Time;durP1;ratioP1;P1;durP2;ratioP2;P2;SDS_P1;SDS_P2;PMS_P1;PMS_P2;Temp;Humidity;BMP_temperature;BMP_pressure;BME280_temperature;BME280_humidity;BME280_pressure;Samples;Min_cycle;Max_cycle;Signal;HPM_P1;HPM_P2
2022/05/02 00:00:00;;;;;;;;;32.00;26.00;;;;;14.85;43.78;101779.44;2383284;28;47148;-91
2022/05/02 00:01:10;;;;;;;;;35.00;28.00;;;;;14.86;43.55;101780.31;2388304;28;45232;-90
2022/05/02 00:02:21;;;;;;;;;24.50;22.75;;;;;14.85;43.66;101776.81;2385756;28;48388;-90
2022/05/02 00:03:32;;;;;;;;;28.00;23.50;;;;;14.83;43.45;101775.97;2393110;28;45275;-91
2022/05/02 00:04:42;;;;;;;;;29.50;24.50;;;;;14.82;43.85;101774.22;2388686;28;47436;-92
2022/05/02 00:05:52;;;;;;;;;30.00;25.75;;;;;14.83;43.89;101772.44;2386267;28;45393;-91
2022/05/02 00:07:03;;;;;;;;;27.75;24.00;;;;;14.84;43.68;101777.69;2402719;28;45392;-93
2022/05/02 00:08:13;;;;;;;;;25.25;23.25;;;;;14.82;43.79;101774.22;2392806;28;45168;-92
2022/05/02 00:09:24;;;;;;;;;27.50;24.00;;;;;14.82;43.72;101773.34;2392761;28;46312;-91
2022/05/02 00:10:34;;;;;;;;;29.75;26.25;;;;;14.81;43.79;101772.50;2383364;28;44652;-91
2022/05/02 00:11:45;;;;;;;;;32.25;27.00;;;;;14.79;43.50;101771.69;2391622;28;46404;-91
2022/05/02 00:12:56;;;;;;;;;31.50;27.50;;;;;14.75;43.65;101767.41;2387981;28;45327;-88
2022/05/02 00:14:07;;;;;;;;;27.00;23.50;;;;;14.78;44.11;101767.31;2393653;28;48543;-92
2022/05/02 00:15:17;;;;;;;;;26.00;22.25;;;;;14.80;44.33;101770.78;2392497;28;44624;-92
2022/05/02 00:16:28;;;;;;;;;22.75;18.75;;;;;14.83;44.11;101773.31;2389359;28;45292;-93
2022/05/02 00:17:56;;;;;;;;;28.25;24.00;;;;;14.84;43.86;101761.81;2388410;28;45259;-91
2022/05/02 00:19:07;;;;;;;;;26.75;23.75;;;;;14.82;44.12;101758.34;2396744;28;47997;-92
2022/05/02 00:20:17;;;;;;;;;23.00;21.00;;;;;14.84;44.14;101767.09;2394659;28;45192;-87
2022/05/02 00:21:28;;;;;;;;;24.25;21.50;;;;;14.85;44.19;101760.94;2392752;28;48210;-88
2022/05/02 00:22:40;;;;;;;;;25.75;23.50;;;;;14.86;43.91;101759.16;2393824;28;45283;-86
2022/05/02 00:23:50;;;;;;;;;18.75;18.25;;;;;14.83;43.70;101749.50;2394756;28;45690;-87
2022/05/02 00:25:00;;;;;;;;;23.75;23.50;;;;;14.84;43.79;101751.22;2394887;28;45323;-88
2022/05/02 00:26:11;;;;;;;;;24.50;22.75;;;;;14.82;43.96;101755.69;2394514;28;46435;-88
2022/05/02 00:27:21;;;;;;;;;24.75;22.25;;;;;14.81;43.71;101754.00;2394891;28;44522;-87
2022/05/02 00:28:31;;;;;;;;;26.75;21.75;;;;;14.79;44.12;101747.84;2397304;28;45262;-88
2022/05/02 00:29:42;;;;;;;;;28.75;24.25;;;;;14.75;44.69;101743.59;2394303;28;44722;-87
2022/05/02 00:30:52;;;;;;;;;29.00;23.00;;;;;14.71;44.05;101750.78;2396706;28;45372;-88
2022/05/02 00:32:04;;;;;;;;;18.75;17.25;;;;;14.68;44.76;101755.31;2394126;28;45243;-87
2022/05/02 00:33:15;;;;;;;;;26.50;22.50;;;;;14.65;44.02;101752.75;2395706;28;47368;-88
2022/05/02 00:34:25;;;;;;;;;28.50;23.25;;;;;14.64;44.10;101754.56;2384598;28;45255;-88
2022/05/02 00:35:35;;;;;;;;;23.50;21.50;;;;;14.64;44.36;101751.94;2394591;28;48185;-88
2022/05/02 00:36:46;;;;;;;;;31.00;24.75;;;;;14.66;44.31;101749.22;2400996;28;45314;-88
2022/05/02 00:37:56;;;;;;;;;31.25;25.00;;;;;14.67;44.30;101754.44;2394497;28;45488;-87
2022/05/02 00:39:06;;;;;;;;;25.50;24.25;;;;;14.62;44.72;101751.97;2394852;28;45227;-88
2022/05/02 00:40:18;;;;;;;;;27.50;23.00;;;;;14.59;44.22;101751.22;2384405;28;46877;-88
2022/05/02 00:41:28;;;;;;;;;27.25;20.75;;;;;14.57;44.32;101747.75;2387376;28;45470;-89
2022/05/02 00:42:39;;;;;;;;;26.50;22.75;;;;;14.53;44.47;101746.97;2384632;28;45905;-88
2022/05/02 00:43:49;;;;;;;;;28.00;24.25;;;;;14.51;44.43;101749.69;2380058;28;45228;-88
2022/05/02 00:45:00;;;;;;;;;32.50;26.75;;;;;14.48;44.22;101739.19;2396693;28;45470;-88
2022/05/02 00:46:18;;;;;;;;;28.00;24.00;;;;;14.46;44.25;101735.75;2402844;28;45147;-87
2022/05/02 00:47:29;;;;;;;;;29.75;23.75;;;;;14.46;44.40;101738.41;2394697;28;45176;-88
2022/05/02 00:48:39;;;;;;;;;30.75;24.50;;;;;14.46;44.46;101743.69;2386925;28;45409;-88
2022/05/02 00:49:50;;;;;;;;;32.00;27.00;;;;;14.46;44.57;101741.03;2393957;28;45317;-86
2022/05/02 00:51:00;;;;;;;;;26.50;24.00;;;;;14.45;44.65;101739.31;2393545;28;45295;-86
2022/05/02 00:52:10;;;;;;;;;28.75;26.25;;;;;14.46;44.52;101735.75;2386129;28;48040;-87
2022/05/02 00:53:23;;;;;;;;;31.00;26.50;;;;;14.43;45.01;101730.56;2377924;28;45148;-86
2022/05/02 00:54:35;;;;;;;;;27.75;25.50;;;;;14.39;44.93;101732.44;2394254;28;46604;-86
2022/05/02 00:55:46;;;;;;;;;31.25;24.75;;;;;14.37;44.82;101733.41;2404000;28;44754;-86
2022/05/02 00:56:57;;;;;;;;;30.00;24.25;;;;;14.34;45.31;101728.22;2403149;28;45440;-86
2022/05/02 00:58:08;;;;;;;;;25.50;23.25;;;;;14.31;45.19;101726.53;2404168;28;45279;-86
2022/05/02 00:59:21;;;;;;;;;26.75;23.25;;;;;14.28;44.84;101724.88;2393650;28;47465;-86
2022/05/02 01:00:34;;;;;;;;;27.25;25.50;;;;;14.27;45.30;101722.28;2387531;28;45264;-86
2022/05/02 01:01:44;;;;;;;;;31.75;29.50;;;;;14.24;44.89;101722.38;2396726;28;45544;-86
2022/05/02 01:02:55;;;;;;;;;29.25;22.50;;;;;14.23;45.00;101723.28;2404061;28;45261;-86
2022/05/02 01:04:05;;;;;;;;;26.50;22.25;;;;;14.22;44.74;101718.91;2401921;28;45392;-86
2022/05/02 01:05:16;;;;;;;;;29.75;26.75;;;;;14.21;45.68;101715.41;2393835;28;45325;-85
2022/05/02 01:07:55;;;;;;;;;27.00;23.50;;;;;14.21;45.21;101719.81;2401844;28;45443;-91
2022/05/02 01:09:06;;;;;;;;;26.50;23.75;;;;;14.20;45.17;101712.81;2385475;28;46999;-87
2022/05/02 01:10:17;;;;;;;;;24.25;24.25;;;;;14.20;45.02;101718.94;2395843;28;44790;-85
2022/05/02 01:11:29;;;;;;;;;22.75;22.25;;;;;14.19;45.46;101711.94;2402865;28;48062;-85
2022/05/02 01:12:39;;;;;;;;;28.25;24.00;;;;;14.18;45.12;101710.22;2396298;28;44608;-85
2022/05/02 01:13:50;;;;;;;;;24.50;21.50;;;;;14.16;44.78;101714.69;2396983;28;45448;-84
2022/05/02 01:15:00;;;;;;;;;24.00;22.25;;;;;14.16;45.13;101706.75;2393895;28;45216;-84
2022/05/02 01:16:24;;;;;;;;;29.75;24.50;;;;;14.17;45.03;101703.22;2386748;28;47407;-84
2022/05/02 01:17:37;;;;;;;;;26.25;21.00;;;;;14.17;45.19;101706.69;2398155;28;45429;-83
2022/05/02 01:18:51;;;;;;;;;24.25;21.75;;;;;14.17;45.11;101711.13;2392404;28;46888;-83
2022/05/02 01:20:06;;;;;;;;;28.00;25.00;;;;;14.15;45.10;101705.88;2393945;28;45326;-84
2022/05/02 01:21:21;;;;;;;;;27.00;21.50;;;;;14.13;44.99;101696.28;2394212;28;46394;-87
2022/05/02 01:22:32;;;;;;;;;22.25;21.25;;;;;14.13;45.32;101696.28;2396851;28;45770;-86
2022/05/02 01:23:44;;;;;;;;;25.75;22.25;;;;;14.15;45.47;101697.94;2403748;28;46300;-89
2022/05/02 01:24:54;;;;;;;;;28.50;21.75;;;;;14.13;45.47;101688.34;2395016;28;45370;-90
2022/05/02 01:26:04;;;;;;;;;28.00;25.25;;;;;14.11;45.13;101698.09;2393876;28;46205;-89
2022/05/02 01:27:15;;;;;;;;;26.25;23.00;;;;;14.10;45.35;101696.41;2385585;28;44717;-94
2022/05/02 01:28:26;;;;;;;;;28.25;26.25;;;;;14.07;45.59;101686.78;2384756;28;47232;-93
2022/05/02 01:29:37;;;;;;;;;24.00;21.75;;;;;14.03;45.33;101696.56;2391534;28;45311;-93
2022/05/02 01:30:48;;;;;;;;;26.50;22.75;;;;;14.00;45.79;101696.66;2393799;28;45614;-85
2022/05/02 01:31:59;;;;;;;;;27.50;23.75;;;;;13.98;45.79;101697.63;2402017;28;45231;-85
2022/05/02 01:33:10;;;;;;;;;27.25;22.75;;;;;13.95;45.44;101695.97;2405545;28;45440;-85
2022/05/02 01:34:20;;;;;;;;;24.25;21.50;;;;;13.95;45.61;101702.09;2399443;28;45312;-85
2022/05/02 01:35:31;;;;;;;;;22.50;20.50;;;;;13.98;45.69;101702.91;2396477;28;45433;-85
2022/05/02 01:36:43;;;;;;;;;25.25;23.00;;;;;14.02;45.73;101700.16;2393526;28;45242;-85
2022/05/02 01:37:53;;;;;;;;;24.75;24.25;;;;;14.05;45.54;101696.53;2384062;28;48211;-85
2022/05/02 01:39:03;;;;;;;;;32.50;24.50;;;;;14.05;45.49;101701.84;2387304;28;45291;-85
2022/05/02 01:40:14;;;;;;;;;23.50;20.50;;;;;14.07;45.45;101703.47;2403049;28;45382;-84
2022/05/02 01:41:24;;;;;;;;;24.75;21.75;;;;;14.09;45.73;101707.88;2394439;28;45210;-85
2022/05/02 01:42:35;;;;;;;;;27.00;26.25;;;;;14.06;45.92;101707.06;2394140;28;46260;-85
2022/05/02 01:43:45;;;;;;;;;26.75;22.25;;;;;14.03;45.65;101707.16;2384328;28;45365;-86
2022/05/02 01:44:55;;;;;;;;;28.25;26.50;;;;;14.02;45.48;101704.56;2392588;28;48152;-85
2022/05/02 01:46:07;;;;;;;;;21.50;19.50;;;;;14.02;45.74;101709.84;2396403;28;45367;-85
2022/05/02 01:47:17;;;;;;;;;24.00;21.50;;;;;14.04;45.89;101708.91;2403710;28;45542;-92
2022/05/02 01:48:28;;;;;;;;;25.50;22.50;;;;;14.08;45.75;101699.06;2393440;28;45262;-87
2022/05/02 01:49:38;;;;;;;;;29.25;25.00;;;;;14.11;45.61;101706.91;2384494;28;47098;-87
2022/05/02 01:50:48;;;;;;;;;27.00;23.00;;;;;14.12;45.51;101703.38;2396442;28;45196;-87
2022/05/02 01:51:59;;;;;;;;;23.00;21.75;;;;;14.13;45.33;101705.06;2403562;28;46593;-87
2022/05/02 01:53:09;;;;;;;;;28.00;23.00;;;;;14.11;45.47;101704.25;2403007;28;45427;-87
2022/05/02 01:54:19;;;;;;;;;28.00;22.75;;;;;14.11;45.38;101709.56;2398835;28;46512;-87
2022/05/02 01:55:30;;;;;;;;;27.00;24.50;;;;;14.12;45.81;101707.78;2394148;28;44610;-87
2022/05/02 01:56:40;;;;;;;;;24.50;22.50;;;;;14.14;45.72;101708.59;2394229;28;45508;-87
2022/05/02 01:57:50;;;;;;;;;23.00;22.25;;;;;14.15;45.66;101702.38;2394142;28;45240;-87
2022/05/02 01:59:03;;;;;;;;;20.50;17.75;;;;;14.17;46.02;101703.22;2389406;28;47124;-87
2022/05/02 02:00:14;;;;;;;;;26.75;23.25;;;;;14.19;45.63;101706.66;2386981;28;45293;-87
2022/05/02 02:01:24;;;;;;;;;28.50;25.50;;;;;14.19;45.76;101706.66;2396203;28;45368;-87
2022/05/02 02:02:34;;;;;;;;;23.75;21.75;;;;;14.21;45.85;101709.25;2403213;28;45626;-87
2022/05/02 02:03:45;;;;;;;;;19.25;18.50;;;;;14.20;45.62;101707.53;2403469;28;46270;-87
2022/05/02 02:06:24;;;;;;;;;25.75;23.50;;;;;14.17;45.46;101697.91;2397102;28;45822;-86
2022/05/02 02:07:34;;;;;;;;;23.00;21.50;;;;;14.16;45.46;101707.63;2399374;28;45229;-86
2022/05/02 02:08:45;;;;;;;;;25.00;21.25;;;;;14.13;45.57;101705.06;2393978;28;45397;-86
2022/05/02 02:09:55;;;;;;;;;20.25;17.25;;;;;14.11;45.40;101706.91;2394063;28;45305;-87
2022/05/02 02:11:07;;;;;;;;;26.00;21.50;;;;;14.12;45.43;101705.13;2393893;28;46507;-87
2022/05/02 02:12:17;;;;;;;;;26.75;21.00;;;;;14.11;45.58;101703.38;2394237;28;45440;-87
2022/05/02 02:13:28;;;;;;;;;25.25;24.75;;;;;14.09;45.44;101708.75;2384047;28;46925;-88
2022/05/02 02:14:38;;;;;;;;;27.75;22.50;;;;;14.07;45.89;101702.66;2393171;28;45322;-89
2022/05/02 02:15:49;;;;;;;;;30.25;22.25;;;;;14.06;45.58;101700.91;2393882;28;45512;-86
2022/05/02 02:16:59;;;;;;;;;24.25;19.75;;;;;14.05;45.77;101700.03;2384035;28;45153;-85
2022/05/02 02:18:10;;;;;;;;;27.25;23.00;;;;;14.05;45.96;101693.91;2386522;28;47184;-85
2022/05/02 02:19:20;;;;;;;;;26.00;20.75;;;;;14.04;45.98;101700.09;2393126;28;45243;-85
2022/05/02 02:20:32;;;;;;;;;28.25;21.75;;;;;14.00;45.56;101704.59;2394352;28;48089;-85
2022/05/02 02:21:42;;;;;;;;;20.75;20.00;;;;;13.99;45.70;101699.38;2393995;28;45277;-85
2022/05/02 02:22:52;;;;;;;;;22.25;20.25;;;;;13.99;45.46;101697.59;2392507;28;47243;-83
2022/05/02 02:24:04;;;;;;;;;26.25;23.25;;;;;13.99;45.83;101700.25;2393292;28;45262;-83
2022/05/02 02:25:15;;;;;;;;;20.75;20.00;;;;;14.00;45.96;101701.13;2393043;28;47232;-82
2022/05/02 02:26:25;;;;;;;;;25.25;21.50;;;;;14.00;46.02;101703.75;2403010;28;45302;-82
2022/05/02 02:27:36;;;;;;;;;18.25;17.00;;;;;14.02;46.15;101700.16;2393044;28;48157;-83
2022/05/02 02:28:46;;;;;;;;;20.50;20.25;;;;;14.03;46.19;101695.69;2396117;28;45266;-83
2022/05/02 02:29:57;;;;;;;;;23.00;21.00;;;;;14.02;45.88;101701.94;2383855;28;47642;-83
2022/05/02 02:31:07;;;;;;;;;22.50;19.50;;;;;13.99;46.04;101696.72;2389109;28;44674;-83
2022/05/02 02:32:18;;;;;;;;;25.00;20.75;;;;;13.96;45.89;101697.69;2398785;28;45252;-83
2022/05/02 02:33:28;;;;;;;;;27.00;22.25;;;;;13.94;45.71;101696.88;2399336;28;46727;-83
2022/05/02 02:34:39;;;;;;;;;27.75;22.75;;;;;13.93;46.07;101693.38;2392953;28;47320;-83
2022/05/02 02:35:49;;;;;;;;;22.75;20.25;;;;;13.94;46.10;101688.94;2393400;28;45196;-83
2022/05/02 02:37:00;;;;;;;;;20.75;20.25;;;;;13.94;46.09;101692.47;2387093;28;47956;-85
2022/05/02 02:38:12;;;;;;;;;20.75;20.75;;;;;13.92;46.11;101689.00;2384864;28;45469;-85
2022/05/02 02:39:23;;;;;;;;;26.50;21.00;;;;;13.92;46.40;101688.13;2392850;28;46060;-85
2022/05/02 02:40:33;;;;;;;;;26.00;21.50;;;;;13.91;46.44;101687.28;2399475;28;45241;-84
2022/05/02 02:41:44;;;;;;;;;19.50;18.50;;;;;13.91;46.20;101681.97;2392999;28;47108;-85
2022/05/02 02:42:54;;;;;;;;;23.50;21.00;;;;;13.90;46.08;101685.53;2396132;28;45187;-88
2022/05/02 02:44:04;;;;;;;;;20.00;17.50;;;;;13.90;46.14;101688.16;2392904;28;47146;-88
2022/05/02 02:45:15;;;;;;;;;25.00;23.00;;;;;13.87;45.92;101688.28;2396094;28;45440;-85
2022/05/02 02:46:25;;;;;;;;;23.75;19.75;;;;;13.85;45.83;101684.84;2401994;28;45557;-86
2022/05/02 02:47:36;;;;;;;;;20.50;18.50;;;;;13.83;45.88;101687.50;2400272;28;45369;-86
2022/05/02 02:48:46;;;;;;;;;23.25;21.25;;;;;13.83;46.43;101678.72;2387983;28;47712;-83
2022/05/02 02:49:56;;;;;;;;;28.00;20.75;;;;;13.81;46.17;101684.06;2393062;28;44652;-82
2022/05/02 02:51:07;;;;;;;;;25.75;23.25;;;;;13.80;45.94;101684.94;2393737;28;46136;-83
2022/05/02 02:52:17;;;;;;;;;21.25;20.00;;;;;13.78;46.02;101678.84;2384023;28;44602;-83
2022/05/02 02:53:28;;;;;;;;;26.00;22.00;;;;;13.79;46.10;101677.09;2386310;28;47282;-86
2022/05/02 02:54:38;;;;;;;;;21.00;21.00;;;;;13.79;46.01;101685.00;2399880;28;44571;-86
2022/05/02 02:55:48;;;;;;;;;19.25;19.00;;;;;13.82;46.21;101685.78;2392957;28;46899;-86
2022/05/02 02:56:59;;;;;;;;;27.50;22.50;;;;;13.83;46.30;101689.28;2396036;28;45259;-86
2022/05/02 02:58:09;;;;;;;;;24.25;19.25;;;;;13.84;46.39;101680.44;2392619;28;46943;-86
2022/05/02 02:59:19;;;;;;;;;23.00;17.50;;;;;13.83;46.49;101684.88;2393281;28;45232;-86
2022/05/02 03:00:30;;;;;;;;;29.25;22.00;;;;;13.87;46.30;101682.13;2394845;28;45683;-84
2022/05/02 03:01:41;;;;;;;;;28.00;21.25;;;;;13.86;46.29;101678.63;2403348;28;45150;-85
2022/05/02 03:02:52;;;;;;;;;28.75;21.75;;;;;13.83;46.47;101681.34;2402972;28;46365;-88
2022/05/02 03:06:01;;;;;;;;;22.25;21.75;;;;;13.81;46.31;101676.13;2402221;28;45469;-88
2022/05/02 03:07:03;;;;;;;;;25.25;23.00;;;;;13.78;46.11;101676.22;2393673;28;45341;-85
2022/05/02 03:08:13;;;;;;;;;22.25;21.50;;;;;13.76;46.70;101682.47;2393618;28;47589;-88
2022/05/02 03:09:24;;;;;;;;;28.75;22.00;;;;;13.76;46.73;101677.19;2393612;28;45328;-88
2022/05/02 03:10:34;;;;;;;;;27.00;19.50;;;;;13.76;46.63;101679.81;2393584;28;45768;-88
2022/05/02 03:11:44;;;;;;;;;25.00;23.75;;;;;13.73;46.20;101673.72;2383759;28;45243;-90
2022/05/02 03:12:55;;;;;;;;;28.75;25.75;;;;;13.72;46.41;101671.13;2389050;28;48254;-89
2022/05/02 03:14:06;;;;;;;;;29.50;24.25;;;;;13.70;46.22;101667.69;2383621;28;44794;-87
2022/05/02 03:15:16;;;;;;;;;28.25;25.50;;;;;13.66;46.19;101677.47;2382824;28;47789;-88
2022/05/02 03:16:26;;;;;;;;;26.50;24.50;;;;;13.64;46.39;101668.72;2395779;28;44789;-87
2022/05/02 03:17:37;;;;;;;;;30.75;22.25;;;;;13.65;46.48;101673.13;2402802;28;45238;-84
2022/05/02 03:18:47;;;;;;;;;28.00;22.25;;;;;13.62;46.09;101667.91;2402788;28;45230;-84
2022/05/02 03:19:57;;;;;;;;;33.00;28.25;;;;;13.60;46.69;101667.09;2403070;28;46265;-84
2022/05/02 03:21:08;;;;;;;;;29.50;26.75;;;;;13.56;46.46;101662.78;2392881;28;44626;-84
2022/05/02 03:22:18;;;;;;;;;25.25;21.50;;;;;13.53;46.46;101666.38;2385699;28;47062;-85
2022/05/02 03:23:29;;;;;;;;;23.25;19.25;;;;;13.52;46.46;101663.78;2395585;28;45210;-85
2022/05/02 03:24:39;;;;;;;;;27.25;24.25;;;;;13.49;46.35;101670.91;2393734;28;45247;-86
2022/05/02 03:25:49;;;;;;;;;30.00;27.50;;;;;13.49;46.48;101665.63;2393327;28;44775;-86
2022/05/02 03:27:00;;;;;;;;;29.25;26.75;;;;;13.48;46.29;101663.03;2385163;28;47990;-86
2022/05/02 03:28:10;;;;;;;;;22.75;20.50;;;;;13.49;46.63;101667.38;2393312;28;45190;-86
2022/05/02 03:29:21;;;;;;;;;29.75;24.50;;;;;13.49;46.93;101670.91;2392613;28;48113;-86
2022/05/02 03:30:31;;;;;;;;;26.75;24.25;;;;;13.48;46.93;101663.88;2397601;28;44609;-86
2022/05/02 03:31:42;;;;;;;;;34.75;27.00;;;;;13.44;46.48;101661.38;2402821;28;46559;-86
2022/05/02 03:32:52;;;;;;;;;29.75;25.50;;;;;13.42;46.68;101668.50;2392819;28;45292;-87
2022/05/02 03:34:02;;;;;;;;;30.00;25.25;;;;;13.39;46.29;101661.53;2394680;28;47008;-86
2022/05/02 03:35:13;;;;;;;;;36.50;28.25;;;;;13.37;46.83;101655.44;2395144;28;45331;-86
2022/05/02 03:36:23;;;;;;;;;29.25;25.50;;;;;13.36;46.67;101662.47;2392676;28;47479;-89
2022/05/02 03:37:33;;;;;;;;;27.50;25.25;;;;;13.38;46.71;101662.44;2395752;28;45252;-83
2022/05/02 03:38:44;;;;;;;;;30.00;28.00;;;;;13.36;46.86;101659.84;2385490;28;47273;-87
2022/05/02 03:39:54;;;;;;;;;30.75;26.50;;;;;13.38;46.76;101658.00;2389704;28;44700;-87
2022/05/02 03:41:05;;;;;;;;;26.50;25.00;;;;;13.41;46.76;101661.50;2396002;28;45325;-84
2022/05/02 03:42:15;;;;;;;;;32.00;28.25;;;;;13.43;46.91;101667.59;2393595;28;45215;-94
2022/05/02 03:43:25;;;;;;;;;31.25;28.25;;;;;13.45;46.77;101666.63;2393777;28;45383;-94
2022/05/02 03:44:36;;;;;;;;;35.00;30.25;;;;;13.44;46.96;101656.97;2402980;28;45302;-95
2022/05/02 03:45:46;;;;;;;;;35.50;28.00;;;;;13.45;47.08;101656.06;2399535;28;45466;-94
2022/05/02 03:46:56;;;;;;;;;26.75;26.50;;;;;13.46;47.28;101655.13;2385453;28;45310;-91
2022/05/02 03:48:07;;;;;;;;;31.50;29.00;;;;;13.48;47.00;101657.75;2386138;28;48081;-91
2022/05/02 03:49:17;;;;;;;;;29.25;24.50;;;;;13.49;47.19;101665.63;2385837;28;45252;-90
2022/05/02 03:50:27;;;;;;;;;32.00;29.25;;;;;13.50;46.90;101664.72;2382915;28;46973;-89
2022/05/02 03:51:38;;;;;;;;;30.50;25.00;;;;;13.48;46.63;101661.22;2376791;28;45246;-88
2022/05/02 03:52:49;;;;;;;;;27.50;22.50;;;;;13.49;47.17;101656.81;2385235;28;47182;-91
2022/05/02 03:53:59;;;;;;;;;23.75;20.75;;;;;13.47;47.11;101656.88;2382946;28;44692;-92
2022/05/02 03:55:09;;;;;;;;;28.00;24.50;;;;;13.49;46.93;101659.47;2376832;28;46256;-93
2022/05/02 03:56:20;;;;;;;;;38.50;26.75;;;;;13.47;47.05;101656.00;2385825;28;45226;-89
2022/05/02 03:57:30;;;;;;;;;29.00;25.00;;;;;13.45;47.10;101653.44;2385809;28;47169;-92
2022/05/02 03:58:40;;;;;;;;;30.75;26.75;;;;;13.46;46.97;101655.13;2384187;28;44706;-92
2022/05/02 03:59:51;;;;;;;;;24.00;22.50;;;;;13.47;47.40;101658.66;2383495;28;47076;-91
2022/05/02 04:01:01;;;;;;;;;28.50;27.75;;;;;13.46;47.41;101657.78;2377061;28;45165;-90
2022/05/02 04:02:12;;;;;;;;;29.75;25.75;;;;;13.46;47.40;101657.78;2390597;28;46277;-91
2022/05/02 04:03:22;;;;;;;;;28.00;22.50;;;;;13.46;47.24;101660.41;2392365;28;44767;-91
2022/05/02 04:04:32;;;;;;;;;28.00;27.75;;;;;13.46;47.33;101657.78;2396703;28;47911;-90
2022/05/02 04:05:43;;;;;;;;;25.50;24.50;;;;;13.47;47.68;101661.28;2384794;28;45313;-91
2022/05/02 04:06:53;;;;;;;;;30.00;26.00;;;;;13.46;47.98;101656.91;2376662;28;47339;-91
2022/05/02 04:08:04;;;;;;;;;29.25;25.00;;;;;13.45;48.09;101656.06;2383605;28;45318;-89
2022/05/02 04:09:14;;;;;;;;;31.00;26.00;;;;;13.45;47.31;101649.91;2390996;28;45330;-87
2022/05/02 04:10:25;;;;;;;;;31.75;27.50;;;;;13.44;47.08;101656.09;2393222;28;44681;-88
2022/05/02 04:11:36;;;;;;;;;29.25;26.25;;;;;13.40;47.15;101650.06;2383054;28;48113;-86
2022/05/02 04:12:47;;;;;;;;;27.75;27.25;;;;;13.40;47.15;101652.69;2380011;28;45395;-86
2022/05/02 04:13:57;;;;;;;;;35.25;29.50;;;;;13.38;47.30;101657.16;2386043;28;45665;-87
2022/05/02 04:15:11;;;;;;;;;23.75;21.75;;;;;13.38;47.82;101657.16;2393476;28;45213;-85
2022/05/02 04:16:22;;;;;;;;;34.50;29.50;;;;;13.38;47.42;101655.38;2397992;28;46214;-86
2022/05/02 04:17:32;;;;;;;;;27.75;24.75;;;;;13.35;47.73;101647.56;2392496;28;45232;-84
2022/05/02 04:18:43;;;;;;;;;39.25;30.75;;;;;13.35;47.46;101657.25;2394931;28;45407;-83
2022/05/02 04:19:53;;;;;;;;;29.25;24.50;;;;;13.32;47.26;101649.41;2402837;28;45278;-84
2022/05/02 04:21:04;;;;;;;;;30.00;26.50;;;;;13.33;47.50;101653.78;2392360;28;47150;-83
2022/05/02 04:22:14;;;;;;;;;37.00;30.00;;;;;13.30;47.88;101652.13;2392140;28;45270;-84
2022/05/02 04:23:24;;;;;;;;;34.50;29.00;;;;;13.29;47.61;101660.94;2393082;28;45344;-84
2022/05/02 04:24:35;;;;;;;;;37.50;32.75;;;;;13.24;47.29;101658.44;2383315;28;45309;-83
2022/05/02 04:25:45;;;;;;;;;30.50;28.00;;;;;13.21;47.23;101655.88;2382409;28;47233;-83
2022/05/02 04:26:57;;;;;;;;;31.50;27.75;;;;;13.21;47.46;101655.88;2394852;28;45315;-82
2022/05/02 04:28:08;;;;;;;;;33.00;27.00;;;;;13.21;47.69;101655.03;2402430;28;46282;-82
2022/05/02 04:29:18;;;;;;;;;31.75;26.75;;;;;13.22;47.96;101662.03;2402635;28;45306;-83
2022/05/02 04:30:29;;;;;;;;;27.50;26.50;;;;;13.21;48.10;101650.59;2399384;28;46447;-91
2022/05/02 04:31:39;;;;;;;;;30.00;25.25;;;;;13.22;48.28;101657.63;2392734;28;45231;-89
2022/05/02 04:32:49;;;;;;;;;31.75;25.75;;;;;13.21;48.46;101655.88;2392588;28;47345;-91
2022/05/02 04:34:00;;;;;;;;;40.25;34.75;;;;;13.23;48.32;101653.22;2382903;28;45452;-90
2022/05/02 04:35:10;;;;;;;;;29.00;26.50;;;;;13.20;48.39;101651.53;2395117;28;46045;-85
2022/05/02 04:36:20;;;;;;;;;30.00;28.00;;;;;13.21;48.39;101649.75;2397469;28;44648;-86
2022/05/02 04:37:31;;;;;;;;;31.00;28.25;;;;;13.18;47.68;101650.69;2392985;28;45255;-92
2022/05/02 04:38:42;;;;;;;;;31.50;28.00;;;;;13.15;47.72;101656.06;2397546;28;45191;-90
2022/05/02 04:39:52;;;;;;;;;32.25;25.75;;;;;13.12;47.68;101654.38;2402269;28;45207;-89
2022/05/02 04:41:02;;;;;;;;;30.75;29.75;;;;;13.09;47.65;101641.25;2402894;28;45347;-92
2022/05/02 04:42:13;;;;;;;;;33.00;29.00;;;;;13.07;47.75;101651.00;2392630;28;47403;-93
2022/05/02 04:43:24;;;;;;;;;35.50;30.75;;;;;13.07;48.08;101652.78;2386140;28;45362;-91
2022/05/02 04:44:34;;;;;;;;;36.00;28.50;;;;;13.08;48.21;101654.50;2395233;28;47013;-92
2022/05/02 04:45:45;;;;;;;;;37.00;34.75;;;;;13.07;48.16;101647.50;2402014;28;44628;-86
2022/05/02 04:46:55;;;;;;;;;32.75;30.75;;;;;13.07;48.00;101650.13;2395353;28;45440;-87
2022/05/02 04:48:06;;;;;;;;;36.75;32.00;;;;;13.08;48.07;101655.38;2384744;28;45360;-92
2022/05/02 04:49:16;;;;;;;;;33.00;27.50;;;;;13.07;48.26;101653.66;2393557;28;45392;-92
2022/05/02 04:50:27;;;;;;;;;26.00;26.00;;;;;13.08;47.98;101654.50;2390531;28;45291;-89
2022/05/02 04:51:37;;;;;;;;;28.50;27.25;;;;;13.05;47.84;101658.09;2383229;28;47142;-92
2022/05/02 04:52:48;;;;;;;;;34.75;30.25;;;;;13.03;48.26;101650.25;2394324;28;45445;-91
2022/05/02 04:53:58;;;;;;;;;32.25;28.50;;;;;13.01;47.78;101654.69;2401819;28;46964;-85
2022/05/02 04:55:08;;;;;;;;;30.75;29.50;;;;;13.03;48.08;101654.66;2401668;28;45505;-92
2022/05/02 04:56:19;;;;;;;;;36.75;30.75;;;;;13.03;48.42;101652.00;2391288;28;46963;-92
2022/05/02 04:57:29;;;;;;;;;31.75;29.00;;;;;13.01;47.91;101649.41;2394344;28;45328;-92
2022/05/02 04:58:40;;;;;;;;;27.25;27.25;;;;;13.00;47.68;101657.38;2402262;28;45460;-92
2022/05/02 04:59:50;;;;;;;;;30.50;29.00;;;;;13.00;48.51;101660.00;2402224;28;45393;-92
2022/05/02 05:01:01;;;;;;;;;32.25;30.25;;;;;12.99;47.66;101659.13;2387855;28;47315;-92
2022/05/02 05:02:12;;;;;;;;;24.25;22.50;;;;;12.99;48.02;101655.66;2394523;28;45270;-87
2022/05/02 05:03:22;;;;;;;;;29.25;27.50;;;;;12.96;47.95;101651.31;2393501;28;47228;-87
2022/05/02 05:04:33;;;;;;;;;36.00;30.25;;;;;12.97;47.72;101655.69;2396508;28;45322;-87
2022/05/02 05:05:43;;;;;;;;;27.75;24.25;;;;;12.94;47.86;101647.84;2397571;28;46379;-87
2022/05/02 05:06:54;;;;;;;;;33.50;28.75;;;;;12.95;47.88;101646.94;2387242;28;45336;-87
2022/05/02 05:08:04;;;;;;;;;36.25;31.00;;;;;12.95;47.98;101654.88;2393505;28;45559;-87
2022/05/02 05:09:15;;;;;;;;;31.00;28.75;;;;;12.94;47.90;101654.00;2388646;28;45492;-90
2022/05/02 05:10:25;;;;;;;;;28.25;26.50;;;;;12.94;47.88;101655.75;2386536;28;47307;-93
2022/05/02 05:12:11;;;;;;;;;30.50;26.00;;;;;12.94;48.03;101647.84;2396861;28;45447;-95
2022/05/02 05:13:26;;;;;;;;;30.00;26.75;;;;;12.95;48.00;101649.59;2375347;28;45307;-93
2022/05/02 05:16:45;;;;;;;;;33.25;32.50;;;;;12.90;47.98;101654.13;2404011;28;45736;-94
2022/05/02 05:18:19;;;;;;;;;35.75;30.75;;;;;12.87;47.95;101651.56;2389438;28;45280;-93
2022/05/02 05:19:51;;;;;;;;;35.25;34.00;;;;;12.89;47.97;101650.63;2394153;28;45617;-93
2022/05/02 05:21:13;;;;;;;;;40.50;33.75;;;;;12.91;48.00;101655.88;2393421;28;44831;-92
2022/05/02 05:22:34;;;;;;;;;35.25;29.50;;;;;12.88;47.68;101655.94;2386500;28;48103;-93
2022/05/02 05:23:56;;;;;;;;;31.50;30.00;;;;;12.86;48.05;101647.22;2387188;28;45256;-93
2022/05/02 05:25:36;;;;;;;;;30.00;28.75;;;;;12.87;47.98;101659.47;2388325;28;47041;-91
2022/05/02 05:27:02;;;;;;;;;40.00;34.50;;;;;12.90;48.13;101660.28;2401034;28;44688;-94
2022/05/02 05:28:26;;;;;;;;;37.25;33.00;;;;;12.92;48.08;101661.09;2403991;28;46396;-93
2022/05/02 05:30:03;;;;;;;;;35.00;33.25;;;;;12.97;48.09;101657.44;2384799;28;44743;-93
2022/05/02 05:31:26;;;;;;;;;36.75;32.00;;;;;12.98;48.06;101657.44;2400404;28;45530;-93